Time;durP1;ratioP1;P1;durP2;ratioP2;P2;SDS_P1;SDS_P2;PMS_P1;PMS_P2;Temp;Humidity;BMP_temperature;BMP_pressure;BME280_temperature;BME280_humidity;BME280_pressure;Samples;Min_cycle;Max_cycle;Signal;HPM_P1;HPM_P2
2022/09/24 00:01:20;;;;;;;8.60;7.10;;;;;;;;;;10453505;28;20416;-95
2022/09/24 00:06:26;;;;;;;8.93;7.60;;;;;;;;;;10452315;28;20477;-95
2022/09/24 00:11:29;;;;;;;9.95;7.38;;;;;;;;;;10476668;28;20416;-95
2022/09/24 00:16:34;;;;;;;9.50;7.63;;;;;;;;;;10442350;28;20403;-95
2022/09/24 00:21:40;;;;;;;10.00;7.47;;;;;;;;;;10433223;28;20507;-96
2022/09/24 00:26:51;;;;;;;9.85;7.22;;;;;;;;;;10440621;28;20420;-94
2022/09/24 00:31:54;;;;;;;8.13;6.65;;;;;;;;;;10448328;28;20415;-96
2022/09/24 00:37:00;;;;;;;9.47;7.20;;;;;;;;;;10433663;28;20414;-95
2022/09/24 00:42:03;;;;;;;9.50;7.00;;;;;;;;;;10465330;28;20423;-95
2022/09/24 00:47:06;;;;;;;7.90;6.60;;;;;;;;;;10446683;28;20418;-94
2022/09/24 00:52:10;;;;;;;8.80;6.93;;;;;;;;;;10427520;28;20409;-94
2022/09/24 00:57:14;;;;;;;8.35;6.82;;;;;;;;;;10452861;28;20411;-95
2022/09/24 01:02:16;;;;;;;9.37;6.87;;;;;;;;;;10446591;28;20473;-95
2022/09/24 01:07:19;;;;;;;9.05;6.80;;;;;;;;;;10446959;28;20431;-95
2022/09/24 01:12:32;;;;;;;8.45;6.63;;;;;;;;;;10465444;28;20419;-94
2022/09/24 01:17:39;;;;;;;8.10;6.97;;;;;;;;;;10452336;28;20411;-96
2022/09/24 01:22:57;;;;;;;8.75;7.00;;;;;;;;;;10477736;28;20421;-95
2022/09/24 01:28:14;;;;;;;8.32;6.40;;;;;;;;;;10454530;28;20419;-93
2022/09/24 01:33:22;;;;;;;7.75;6.68;;;;;;;;;;10448470;28;20421;-96
2022/09/24 01:38:28;;;;;;;7.33;6.60;;;;;;;;;;10462145;28;20444;-95
2022/09/24 01:43:31;;;;;;;8.75;7.07;;;;;;;;;;10458855;28;20897;-95
2022/09/24 01:48:37;;;;;;;8.48;7.00;;;;;;;;;;10459058;28;20408;-95
2022/09/24 01:53:44;;;;;;;7.60;6.53;;;;;;;;;;10450028;28;20922;-95
2022/09/24 01:58:51;;;;;;;10.23;7.53;;;;;;;;;;10443763;28;20413;-95
2022/09/24 02:03:58;;;;;;;9.88;7.55;;;;;;;;;;10464868;28;20443;-94
2022/09/24 02:09:00;;;;;;;9.98;7.10;;;;;;;;;;10439107;28;20423;-95
2022/09/24 02:14:06;;;;;;;8.18;7.25;;;;;;;;;;10450484;28;20407;-95
2022/09/24 02:19:13;;;;;;;8.43;7.05;;;;;;;;;;10460777;28;20442;-94
2022/09/24 02:24:19;;;;;;;10.17;7.30;;;;;;;;;;10445212;28;20419;-95
2022/09/24 02:29:22;;;;;;;8.40;7.13;;;;;;;;;;10432105;28;21272;-96
2022/09/24 02:34:31;;;;;;;8.88;7.70;;;;;;;;;;10459121;28;20412;-96
2022/09/24 02:39:35;;;;;;;9.43;7.80;;;;;;;;;;10442014;28;20415;-95
2022/09/24 02:44:37;;;;;;;10.60;7.50;;;;;;;;;;10443266;28;20411;-94
2022/09/24 02:49:41;;;;;;;8.80;7.10;;;;;;;;;;10444398;28;20412;-94
2022/09/24 02:54:43;;;;;;;8.93;7.22;;;;;;;;;;10444625;28;20410;-95
2022/09/24 02:59:45;;;;;;;8.63;7.72;;;;;;;;;;10467769;28;20420;-96
2022/09/24 03:04:48;;;;;;;9.30;7.05;;;;;;;;;;10482992;28;20415;-94
2022/09/24 03:09:51;;;;;;;8.98;7.40;;;;;;;;;;10473418;28;20414;-94
2022/09/24 03:14:53;;;;;;;8.30;7.35;;;;;;;;;;10464734;28;20403;-96
2022/09/24 03:19:56;;;;;;;10.57;8.20;;;;;;;;;;10445947;28;20411;-95
2022/09/24 03:24:58;;;;;;;10.10;7.50;;;;;;;;;;10450775;28;20478;-94
2022/09/24 03:35:21;;;;;;;8.32;6.90;;;;;;;;;;10438126;28;20904;-95
2022/09/24 03:40:24;;;;;;;8.32;6.95;;;;;;;;;;10450998;28;20799;-96
2022/09/24 03:45:26;;;;;;;8.40;7.22;;;;;;;;;;10424462;28;20424;-95
2022/09/24 03:50:30;;;;;;;9.05;6.97;;;;;;;;;;10437836;28;20870;-95
2022/09/24 03:55:32;;;;;;;7.75;6.88;;;;;;;;;;10438379;28;20436;-95
2022/09/24 04:00:34;;;;;;;8.95;7.05;;;;;;;;;;10442856;28;20409;-96
2022/09/24 04:05:39;;;;;;;8.32;6.88;;;;;;;;;;10448501;28;20443;-96
2022/09/24 04:10:41;;;;;;;9.25;7.60;;;;;;;;;;10461119;28;20458;-94
2022/09/24 04:15:43;;;;;;;9.20;8.07;;;;;;;;;;10432606;28;20473;-96
2022/09/24 04:20:48;;;;;;;9.80;7.55;;;;;;;;;;10448508;28;20431;-94
2022/09/24 04:25:51;;;;;;;9.10;7.73;;;;;;;;;;10435907;28;20536;-95
2022/09/24 04:30:53;;;;;;;9.80;7.40;;;;;;;;;;10440324;28;20465;-95
2022/09/24 04:35:56;;;;;;;10.73;7.97;;;;;;;;;;10460986;28;20477;-95
2022/09/24 04:41:05;;;;;;;11.13;8.15;;;;;;;;;;10454575;28;21189;-94
2022/09/24 04:46:10;;;;;;;11.32;8.65;;;;;;;;;;10450168;28;20443;-95
2022/09/24 04:51:15;;;;;;;11.27;8.55;;;;;;;;;;10461701;28;20477;-92
2022/09/24 04:56:17;;;;;;;11.33;8.93;;;;;;;;;;10463074;28;20541;-95
2022/09/24 05:01:20;;;;;;;10.73;9.38;;;;;;;;;;10443135;28;20947;-95
2022/09/24 05:06:24;;;;;;;11.70;9.25;;;;;;;;;;10440465;28;20893;-95
2022/09/24 05:11:26;;;;;;;11.82;8.93;;;;;;;;;;10443643;28;20781;-96
2022/09/24 05:16:30;;;;;;;13.13;8.70;;;;;;;;;;10451217;28;20446;-96
2022/09/24 05:21:50;;;;;;;9.67;7.50;;;;;;;;;;10463420;28;20530;-96
2022/09/24 05:27:11;;;;;;;9.67;7.60;;;;;;;;;;10443419;28;20528;-95
2022/09/24 05:32:17;;;;;;;8.93;7.10;;;;;;;;;;10458876;28;20419;-92
2022/09/24 05:37:28;;;;;;;8.73;7.40;;;;;;;;;;10463438;28;20789;-95
2022/09/24 05:42:31;;;;;;;10.77;7.37;;;;;;;;;;10453811;28;20440;-91
2022/09/24 05:47:33;;;;;;;8.80;7.22;;;;;;;;;;10453970;28;20408;-92
2022/09/24 05:52:37;;;;;;;12.90;7.70;;;;;;;;;;10439005;28;20466;-91
2022/09/24 05:57:39;;;;;;;8.68;7.50;;;;;;;;;;10445800;28;20409;-92
2022/09/24 06:02:41;;;;;;;11.25;8.00;;;;;;;;;;10423838;28;20944;-89
2022/09/24 06:07:45;;;;;;;15.03;8.40;;;;;;;;;;10451407;28;20409;-90
2022/09/24 06:12:47;;;;;;;9.52;8.18;;;;;;;;;;10444087;28;20425;-88
2022/09/24 06:17:52;;;;;;;11.90;8.18;;;;;;;;;;10442037;28;20473;-92
2022/09/24 06:22:57;;;;;;;10.60;8.50;;;;;;;;;;10444477;28;20420;-90
2022/09/24 06:28:01;;;;;;;10.50;7.97;;;;;;;;;;10466262;28;20406;-90
2022/09/24 06:33:04;;;;;;;11.27;7.67;;;;;;;;;;10450187;28;20416;-91
2022/09/24 06:38:10;;;;;;;10.77;7.75;;;;;;;;;;10433366;28;20412;-91
2022/09/24 06:43:13;;;;;;;10.00;7.60;;;;;;;;;;10443709;28;20456;-93
2022/09/24 06:48:16;;;;;;;9.93;7.55;;;;;;;;;;10443071;28;20910;-91
2022/09/24 06:53:19;;;;;;;10.98;8.27;;;;;;;;;;10443787;28;20449;-92
2022/09/24 06:58:22;;;;;;;10.65;8.43;;;;;;;;;;10445197;28;20408;-92
2022/09/24 07:03:25;;;;;;;12.30;8.10;;;;;;;;;;10452897;28;20407;-92
2022/09/24 07:08:28;;;;;;;11.40;7.55;;;;;;;;;;10444934;28;20434;-91
2022/09/24 07:13:31;;;;;;;11.77;8.18;;;;;;;;;;10443067;28;20434;-91
2022/09/24 07:18:32;;;;;;;11.85;7.78;;;;;;;;;;10444659;28;20964;-92
2022/09/24 07:23:36;;;;;;;8.85;7.45;;;;;;;;;;10440405;28;20508;-90
2022/09/24 07:28:38;;;;;;;9.00;7.35;;;;;;;;;;10430550;28;20948;-90
2022/09/24 07:33:39;;;;;;;10.80;7.70;;;;;;;;;;10449262;28;20503;-87
2022/09/24 07:38:43;;;;;;;8.93;6.88;;;;;;;;;;10455162;28;20446;-91
2022/09/24 07:43:46;;;;;;;9.95;6.93;;;;;;;;;;10445747;28;20465;-92
2022/09/24 07:48:48;;;;;;;9.07;6.38;;;;;;;;;;10441287;28;20439;-91
2022/09/24 07:53:51;;;;;;;7.00;5.80;;;;;;;;;;10436340;28;20450;-90
2022/09/24 07:58:54;;;;;;;7.50;5.77;;;;;;;;;;10440358;28;20896;-91
2022/09/24 08:03:58;;;;;;;7.68;5.93;;;;;;;;;;10436497;28;20491;-92
2022/09/24 08:09:01;;;;;;;7.10;5.57;;;;;;;;;;10428044;28;20507;-91
2022/09/24 08:14:03;;;;;;;7.28;5.10;;;;;;;;;;10424456;28;20411;-91
2022/09/24 08:19:12;;;;;;;7.00;5.30;;;;;;;;;;10417967;28;20425;-92
2022/09/24 08:24:16;;;;;;;6.10;5.07;;;;;;;;;;10424351;28;20654;-80
2022/09/24 08:29:18;;;;;;;5.72;4.90;;;;;;;;;;10433870;28;20400;-87
2022/09/24 08:34:20;;;;;;;29.35;10.68;;;;;;;;;;10436817;28;20437;-88
2022/09/24 08:39:23;;;;;;;8.00;4.73;;;;;;;;;;10439045;28;20916;-87
2022/09/24 08:49:56;;;;;;;5.63;4.88;;;;;;;;;;10435017;28;20889;-88
2022/09/24 08:55:05;;;;;;;7.05;4.72;;;;;;;;;;10446007;28;20428;-84
2022/09/24 09:00:14;;;;;;;6.63;4.82;;;;;;;;;;10433075;28;20425;-88
2022/09/24 09:05:26;;;;;;;6.43;4.57;;;;;;;;;;10442931;28;20977;-89
2022/09/24 09:10:33;;;;;;;5.28;4.38;;;;;;;;;;10439696;28;20456;-88
2022/09/24 09:15:40;;;;;;;6.70;4.50;;;;;;;;;;10440706;28;20465;-88
2022/09/24 09:20:44;;;;;;;5.68;4.50;;;;;;;;;;10440112;28;20534;-88
2022/09/24 09:25:51;;;;;;;6.13;4.00;;;;;;;;;;10454053;28;20485;-88
2022/09/24 09:31:06;;;;;;;6.60;4.80;;;;;;;;;;10449177;28;20783;-88
2022/09/24 09:36:26;;;;;;;5.93;4.50;;;;;;;;;;10454695;28;20403;-87
2022/09/24 09:41:38;;;;;;;6.60;5.07;;;;;;;;;;10453753;28;20443;-87
2022/09/24 09:46:45;;;;;;;9.43;4.63;;;;;;;;;;10443210;28;21367;-88
2022/09/24 09:51:48;;;;;;;6.50;4.67;;;;;;;;;;10444170;28;20443;-88
2022/09/24 09:56:51;;;;;;;6.75;4.70;;;;;;;;;;10443011;28;20418;-88
2022/09/24 10:01:55;;;;;;;5.50;4.68;;;;;;;;;;10444648;28;20891;-87
2022/09/24 10:07:08;;;;;;;7.20;4.60;;;;;;;;;;10448102;28;20531;-88
2022/09/24 10:12:20;;;;;;;6.65;4.68;;;;;;;;;;10439464;28;21240;-87
2022/09/24 10:17:26;;;;;;;5.13;4.32;;;;;;;;;;10442169;28;20420;-86
2022/09/24 10:22:29;;;;;;;6.25;4.38;;;;;;;;;;10431593;28;20485;-88
2022/09/24 10:27:36;;;;;;;4.90;4.40;;;;;;;;;;10430798;28;20447;-88
2022/09/24 10:32:39;;;;;;;5.72;4.50;;;;;;;;;;10436440;28;20508;-89
2022/09/24 10:37:50;;;;;;;8.07;4.68;;;;;;;;;;10428127;28;20435;-87
2022/09/24 10:42:59;;;;;;;5.83;4.47;;;;;;;;;;10437061;28;20402;-88
2022/09/24 10:48:12;;;;;;;7.05;4.22;;;;;;;;;;10431217;28;20423;-88
2022/09/24 10:53:22;;;;;;;5.45;4.43;;;;;;;;;;10429632;28;20601;-88
2022/09/24 10:58:45;;;;;;;5.30;4.07;;;;;;;;;;10434141;28;20404;-89
2022/09/24 11:04:03;;;;;;;6.85;4.10;;;;;;;;;;10444551;28;20457;-88
2022/09/24 11:09:17;;;;;;;6.50;3.80;;;;;;;;;;10437876;28;20805;-83
2022/09/24 11:14:35;;;;;;;5.38;3.83;;;;;;;;;;10429563;28;20488;-82
2022/09/24 11:19:54;;;;;;;6.10;3.80;;;;;;;;;;10429892;28;20484;-88
2022/09/24 11:25:16;;;;;;;6.88;3.90;;;;;;;;;;10419610;28;20436;-92
2022/09/24 11:30:23;;;;;;;6.47;3.90;;;;;;;;;;10418263;28;20433;-89
2022/09/24 11:35:55;;;;;;;5.75;4.03;;;;;;;;;;10428834;28;20514;-90
2022/09/24 11:41:12;;;;;;;5.00;4.03;;;;;;;;;;10423407;28;20412;-88
2022/09/24 11:46:33;;;;;;;4.90;4.30;;;;;;;;;;10436099;28;20427;-90
2022/09/24 11:51:50;;;;;;;4.85;4.00;;;;;;;;;;10435872;28;20415;-93
2022/09/24 11:57:01;;;;;;;4.70;4.03;;;;;;;;;;10423608;28;20461;-91
2022/09/24 12:02:24;;;;;;;6.15;4.05;;;;;;;;;;10429283;28;20832;-91
2022/09/24 12:07:48;;;;;;;4.97;3.88;;;;;;;;;;10429291;28;20421;-92
2022/09/24 12:13:11;;;;;;;4.78;3.70;;;;;;;;;;10435476;28;21235;-91
2022/09/24 12:18:31;;;;;;;6.35;4.15;;;;;;;;;;10433615;28;21366;-91
2022/09/24 12:23:39;;;;;;;4.65;3.47;;;;;;;;;;10431909;28;20416;-90
2022/09/24 12:40:07;;;;;;;7.28;3.55;;;;;;;;;;10468665;28;20400;-95
2022/09/24 12:45:17;;;;;;;6.75;3.97;;;;;;;;;;10464907;28;20413;-95
2022/09/24 12:50:41;;;;;;;4.97;4.38;;;;;;;;;;10452927;28;20425;-93
2022/09/24 12:56:33;;;;;;;7.68;5.25;;;;;;;;;;10470273;28;20404;-95
2022/09/24 13:12:54;;;;;;;9.63;5.10;;;;;;;;;;10435139;28;20822;-95
2022/09/24 13:24:30;;;;;;;6.60;5.20;;;;;;;;;;10476966;28;20380;-96
2022/09/24 13:58:26;;;;;;;5.15;4.65;;;;;;;;;;10451822;28;20404;-95
2022/09/24 14:03:37;;;;;;;6.10;4.43;;;;;;;;;;10456057;28;20415;-95
2022/09/24 14:14:10;;;;;;;6.93;4.40;;;;;;;;;;10458066;28;20464;-80
2022/09/24 14:19:15;;;;;;;6.03;4.75;;;;;;;;;;10442205;28;20811;-78
2022/09/24 14:24:21;;;;;;;5.77;4.50;;;;;;;;;;10436434;28;20411;-88
2022/09/24 14:29:26;;;;;;;8.75;4.68;;;;;;;;;;10447442;28;20413;-83
2022/09/24 14:34:34;;;;;;;4.93;4.45;;;;;;;;;;10453341;28;20408;-87
2022/09/24 14:39:43;;;;;;;6.43;4.40;;;;;;;;;;10438799;28;20410;-88
2022/09/24 14:44:46;;;;;;;4.63;4.23;;;;;;;;;;10442451;28;20438;-89
2022/09/24 14:49:50;;;;;;;5.60;4.32;;;;;;;;;;10450209;28;20407;-91
2022/09/24 14:55:01;;;;;;;4.70;4.05;;;;;;;;;;10432341;28;20399;-89
2022/09/24 15:00:18;;;;;;;6.70;4.32;;;;;;;;;;10443136;28;20419;-90
2022/09/24 15:05:25;;;;;;;5.82;3.55;;;;;;;;;;10447142;28;20501;-90
2022/09/24 15:10:27;;;;;;;4.07;3.03;;;;;;;;;;10431002;28;20510;-91
2022/09/24 15:15:31;;;;;;;4.15;3.58;;;;;;;;;;10443340;28;20412;-89
2022/09/24 15:20:34;;;;;;;4.20;3.33;;;;;;;;;;10446724;28;20403;-89
2022/09/24 15:25:45;;;;;;;5.20;3.60;;;;;;;;;;10435217;28;20420;-88
2022/09/24 15:30:47;;;;;;;6.67;4.17;;;;;;;;;;10432466;28;20489;-84
2022/09/24 15:35:51;;;;;;;4.67;4.20;;;;;;;;;;10426177;28;20502;-83
2022/09/24 15:40:53;;;;;;;6.97;4.85;;;;;;;;;;10430019;28;20481;-81
2022/09/24 15:45:54;;;;;;;5.15;4.65;;;;;;;;;;10438873;28;20427;-78
2022/09/24 15:51:01;;;;;;;6.30;4.82;;;;;;;;;;10431604;28;20381;-92
2022/09/24 15:56:03;;;;;;;6.90;5.30;;;;;;;;;;10456566;28;20417;-93
2022/09/24 16:01:06;;;;;;;8.30;5.50;;;;;;;;;;10450459;28;20957;-93
2022/09/24 16:06:11;;;;;;;7.00;5.40;;;;;;;;;;10439238;28;20417;-93
2022/09/24 16:11:13;;;;;;;6.78;5.28;;;;;;;;;;10430039;28;20415;-94
2022/09/24 16:16:15;;;;;;;5.00;4.50;;;;;;;;;;10433965;28;20421;-93
2022/09/24 16:27:22;;;;;;;5.25;4.53;;;;;;;;;;10340912;28;20427;-91
2022/09/24 16:32:24;;;;;;;6.45;4.50;;;;;;;;;;10446138;28;20411;-94
2022/09/24 16:37:26;;;;;;;5.27;4.30;;;;;;;;;;10435113;28;20430;-93
2022/09/24 16:42:30;;;;;;;4.75;4.22;;;;;;;;;;10436410;28;21119;-94
2022/09/24 16:47:32;;;;;;;6.05;4.10;;;;;;;;;;10428843;28;20424;-93
2022/09/24 16:52:38;;;;;;;5.90;4.35;;;;;;;;;;10429167;28;20425;-88
2022/09/24 16:57:44;;;;;;;6.03;4.63;;;;;;;;;;10416332;28;21119;-90
2022/09/24 17:02:51;;;;;;;6.53;4.75;;;;;;;;;;10428290;28;20411;-89
2022/09/24 17:07:53;;;;;;;6.82;5.13;;;;;;;;;;10411848;28;20986;-89
2022/09/24 17:13:01;;;;;;;7.78;5.60;;;;;;;;;;10431602;28;20425;-90
2022/09/24 17:18:10;;;;;;;7.83;5.47;;;;;;;;;;10434126;28;20416;-89
2022/09/24 17:23:15;;;;;;;7.57;5.68;;;;;;;;;;10419958;28;21303;-89
2022/09/24 17:28:22;;;;;;;8.07;5.70;;;;;;;;;;10425098;28;20413;-88
2022/09/24 17:33:25;;;;;;;7.77;6.00;;;;;;;;;;10426003;28;20405;-90
2022/09/24 17:38:32;;;;;;;8.60;6.13;;;;;;;;;;10422016;28;20449;-89
2022/09/24 17:43:41;;;;;;;8.85;7.20;;;;;;;;;;10427930;28;20415;-89
2022/09/24 17:48:50;;;;;;;9.90;7.57;;;;;;;;;;10433949;28;20413;-92
2022/09/24 17:53:55;;;;;;;9.02;7.03;;;;;;;;;;10430869;28;20421;-89
2022/09/24 17:59:00;;;;;;;9.55;6.43;;;;;;;;;;10425981;28;21327;-88
2022/09/24 18:04:06;;;;;;;10.18;6.68;;;;;;;;;;10424266;28;21122;-88
2022/09/24 18:09:11;;;;;;;10.23;7.63;;;;;;;;;;10419364;28;20753;-87
2022/09/24 18:20:16;;;;;;;9.25;6.50;;;;;;;;;;10454125;28;20402;-95
2022/09/24 18:31:42;;;;;;;6.87;5.50;;;;;;;;;;10464399;28;20876;-94
2022/09/24 18:41:55;;;;;;;7.53;5.88;;;;;;;;;;10686296;22;20432;-89
2022/09/24 18:47:00;;;;;;;6.18;5.53;;;;;;;;;;10482999;28;20454;-88
2022/09/24 18:52:12;;;;;;;7.55;5.80;;;;;;;;;;10446852;28;20400;-90
2022/09/24 18:57:23;;;;;;;7.73;6.20;;;;;;;;;;10459072;28;20608;-90
2022/09/24 19:07:56;;;;;;;6.80;6.10;;;;;;;;;;10447637;28;20962;-91
2022/09/24 19:13:11;;;;;;;;;;;;;;;;;;;;;
2022/09/24 19:18:26;;;;;;;6.95;6.25;;;;;;;;;;10449063;28;20752;-92
2022/09/24 19:23:45;;;;;;;7.75;6.00;;;;;;;;;;10437485;28;20446;-90
2022/09/24 19:28:51;;;;;;;9.30;6.40;;;;;;;;;;10432779;28;20504;-91
2022/09/24 19:34:23;;;;;;;8.45;6.38;;;;;;;;;;10424450;28;20408;-90
2022/09/24 19:39:26;;;;;;;8.30;6.68;;;;;;;;;;10416385;28;20512;-89
2022/09/24 19:44:32;;;;;;;10.13;6.60;;;;;;;;;;10426432;28;20465;-87
2022/09/24 19:49:39;;;;;;;7.85;6.65;;;;;;;;;;10428971;28;20421;-90
2022/09/24 19:54:53;;;;;;;7.93;6.30;;;;;;;;;;10421007;28;20411;-88
2022/09/24 20:00:12;;;;;;;9.00;6.82;;;;;;;;;;10425601;28;20797;-90
2022/09/24 20:05:18;;;;;;;7.73;6.80;;;;;;;;;;11234897;22;20465;-92
2022/09/24 20:10:33;;;;;;;7.22;6.53;;;;;;;;;;10431375;28;20499;-93
2022/09/24 20:15:35;;;;;;;9.68;7.10;;;;;;;;;;10436410;28;20463;-94
2022/09/24 20:21:01;;;;;;;8.85;6.65;;;;;;;;;;10444593;28;20427;-93
2022/09/24 20:36:52;;;;;;;9.65;6.20;;;;;;;;;;10444764;28;20779;-92
2022/09/24 20:42:02;;;;;;;7.80;6.33;;;;;;;;;;10451938;28;20422;-94
2022/09/24 20:47:24;;;;;;;6.50;5.90;;;;;;;;;;10488530;28;20403;-93
2022/09/24 20:52:32;;;;;;;7.63;5.80;;;;;;;;;;10458589;28;20613;-93
2022/09/24 20:57:43;;;;;;;6.43;5.83;;;;;;;;;;10455042;28;20416;-94
2022/09/24 21:02:52;;;;;;;5.85;5.30;;;;;;;;;;10441643;28;20461;-94
2022/09/24 21:08:15;;;;;;;7.55;5.60;;;;;;;;;;10431000;28;20421;-93
2022/09/24 21:13:20;;;;;;;6.45;5.82;;;;;;;;;;10441567;28;20471;-93
2022/09/24 21:18:24;;;;;;;6.70;5.57;;;;;;;;;;10450938;28;20530;-93
2022/09/24 21:23:36;;;;;;;7.22;5.50;;;;;;;;;;10437919;28;20567;-94
2022/09/24 21:28:39;;;;;;;7.43;5.80;;;;;;;;;;10438651;28;20413;-95
2022/09/24 21:33:45;;;;;;;7.25;6.40;;;;;;;;;;10439053;28;20504;-94
2022/09/24 21:38:56;;;;;;;7.05;6.30;;;;;;;;;;10438241;28;20428;-95
2022/09/24 21:44:00;;;;;;;6.90;6.10;;;;;;;;;;10450589;28;20415;-94
2022/09/24 21:49:03;;;;;;;8.07;6.28;;;;;;;;;;10446147;28;20450;-95
2022/09/24 21:54:10;;;;;;;8.55;6.63;;;;;;;;;;10445611;28;20413;-95
2022/09/24 22:04:35;;;;;;;7.03;6.20;;;;;;;;;;10439823;28;20398;-96
2022/09/24 22:09:39;;;;;;;6.68;6.07;;;;;;;;;;10441983;28;20416;-94
2022/09/24 22:14:43;;;;;;;7.57;6.77;;;;;;;;;;10450647;28;20479;-94
2022/09/24 22:19:45;;;;;;;8.75;6.78;;;;;;;;;;10437639;28;20425;-92
2022/09/24 22:24:50;;;;;;;7.75;6.85;;;;;;;;;;10430633;28;20421;-89
2022/09/24 22:40:25;;;;;;;10.20;7.80;;;;;;;;;;10437687;28;20389;-95
2022/09/24 22:45:32;;;;;;;9.05;7.68;;;;;;;;;;10440453;28;20964;-94
2022/09/24 22:50:34;;;;;;;9.20;7.47;;;;;;;;;;10434091;28;20436;-94
2022/09/24 22:55:42;;;;;;;8.85;7.82;;;;;;;;;;10433036;28;20428;-93
2022/09/24 23:00:57;;;;;;;;;;;;;;;;;;;;;
2022/09/24 23:06:22;;;;;;;;;;;;;;;;;;;;;
2022/09/24 23:12:11;;;;;;;10.77;8.47;;;;;;;;;;10437549;28;20457;-95
2022/09/24 23:23:03;;;;;;;10.75;7.88;;;;;;;;;;10405841;28;20412;-94
2022/09/24 23:28:06;;;;;;;9.68;8.00;;;;;;;;;;10447369;28;20419;-94
2022/09/24 23:33:19;;;;;;;8.75;7.85;;;;;;;;;;11208206;23;20428;-95
2022/09/24 23:38:31;;;;;;;9.45;8.40;;;;;;;;;;10445403;28;20502;-93
2022/09/24 23:43:53;;;;;;;9.02;8.00;;;;;;;;;;10446380;28;20821;-95
2022/09/24 23:48:59;;;;;;;9.90;7.80;;;;;;;;;;10468178;28;20619;-95
2022/09/24 23:54:07;;;;;;;10.00;8.50;;;;;;;;;;10486698;28;20530;-96
